KANQ

Tri-State Steuben County Airport

Angola, Indiana, USA
METAR KANQ 221955Z AUTO 08007G13KT 10SM SCT020 BKN030 BKN042 22/18 A2983 RMK AO2 TSNO
Observed Flight Rules
Jul-22 @ 19:55 UTC (7 minutes ago) Marginal Visual Flight Rules
Wind Visibility Clouds
80° at 7 knots
 Gusting to 13 knots
10 miles
  • Scattered at 2,000' AGL
  • Broken at 3,000' AGL
  • Broken at 4,200' AGL
Temperatures Readings
Current 22°C / 72°F
Dewpoint 18°C / 64°F
Humidity 78%
Altimeter 29.83" Hg
Pressure 1010 hPa
Elevation 303
METAR KANQ 221955Z AUTO 08007G13KT 10SM SCT020 BKN030 BKN042 22/18 A2983 RMK AO2 TSNO
Observed Flight Rules
Jul-22 @ 19:55 UTC
(7 minutes ago)
MVFR
Wind Visibility
80° at 7 knots
 Gusting to 13 knots
10 miles
Clouds
  • Scattered at 2,000' AGL
  • Broken at 3,000' AGL
  • Broken at 4,200' AGL
Temperature Dewpoint
22°C / 72°F 18°C / 64°F
Humidity Altimeter Pressure
78% 29.83" Hg 1010 hPa